Time;durP1;ratioP1;P1;durP2;ratioP2;P2;SDS_P1;SDS_P2;PMS_P1;PMS_P2;Temp;Humidity;BMP_temperature;BMP_pressure;BME280_temperature;BME280_humidity;BME280_pressure;Samples;Min_cycle;Max_cycle;Signal;HPM_P1;HPM_P2
2021/05/13 00:00:07;;;;;;;8.00;7.30;;;;;;;;;;4984037;28;20243;-59
2021/05/13 00:02:34;;;;;;;8.80;7.90;;;;;;;;;;4983701;28;20947;-61
2021/05/13 00:05:00;;;;;;;7.87;7.07;;;;;;;;;;4982040;28;20199;-60
2021/05/13 00:07:30;;;;;;;9.40;5.70;;;;;;;;;;4984777;28;20195;-57
2021/05/13 00:10:00;;;;;;;5.37;4.87;;;;;;;;;;4978838;28;20617;-60
2021/05/13 00:12:39;;;;;;;4.73;4.23;;;;;;;;;;4983083;28;20216;-60
2021/05/13 00:15:18;;;;;;;4.50;4.10;;;;;;;;;;4981405;28;20194;-60
2021/05/13 00:17:45;;;;;;;5.03;4.23;;;;;;;;;;4976525;28;20215;-60
2021/05/13 00:20:14;;;;;;;8.40;4.77;;;;;;;;;;4979473;28;20216;-62
2021/05/13 00:22:42;;;;;;;8.17;5.17;;;;;;;;;;4984151;28;20204;-59
2021/05/13 00:25:12;;;;;;;6.97;5.17;;;;;;;;;;4983523;28;20663;-60
2021/05/13 00:27:38;;;;;;;8.60;5.63;;;;;;;;;;4997297;28;20187;-60
2021/05/13 00:30:06;;;;;;;6.00;5.40;;;;;;;;;;4975487;28;20594;-60
2021/05/13 00:32:36;;;;;;;8.77;5.63;;;;;;;;;;4985951;28;20250;-58
2021/05/13 00:35:04;;;;;;;6.57;5.93;;;;;;;;;;4980926;28;20539;-60
2021/05/13 00:37:32;;;;;;;7.00;6.37;;;;;;;;;;4985569;28;20212;-61
2021/05/13 00:40:01;;;;;;;9.27;6.43;;;;;;;;;;4985472;28;20357;-57
2021/05/13 00:42:29;;;;;;;8.17;7.20;;;;;;;;;;4985478;28;20211;-58
2021/05/13 00:44:59;;;;;;;7.30;6.60;;;;;;;;;;4985384;28;21069;-60
2021/05/13 00:47:29;;;;;;;6.20;5.47;;;;;;;;;;4986551;28;20246;-58
2021/05/13 00:49:55;;;;;;;7.17;6.33;;;;;;;;;;4982311;28;20583;-58
2021/05/13 00:52:25;;;;;;;7.53;6.73;;;;;;;;;;4989614;28;20199;-58
2021/05/13 00:54:55;;;;;;;7.20;6.50;;;;;;;;;;4990059;28;20278;-63
2021/05/13 00:57:23;;;;;;;7.30;6.53;;;;;;;;;;4989700;28;20212;-60
2021/05/13 00:59:54;;;;;;;8.63;7.77;;;;;;;;;;4984382;28;20231;-62
2021/05/13 01:02:22;;;;;;;7.70;7.00;;;;;;;;;;4983023;28;20204;-60
2021/05/13 01:04:49;;;;;;;9.57;7.40;;;;;;;;;;4983801;28;20637;-61
2021/05/13 01:07:19;;;;;;;12.07;7.40;;;;;;;;;;4985152;28;20194;-59
2021/05/13 01:09:45;;;;;;;6.87;6.20;;;;;;;;;;4985560;28;20745;-59
2021/05/13 01:12:16;;;;;;;7.53;6.70;;;;;;;;;;4985136;28;20200;-60
2021/05/13 01:14:44;;;;;;;9.67;6.97;;;;;;;;;;4985912;28;20208;-62
2021/05/13 01:17:36;;;;;;;11.17;6.90;;;;;;;;;;4986170;28;20284;-58
2021/05/13 01:20:02;;;;;;;10.50;6.57;;;;;;;;;;4984842;28;20220;-57
2021/05/13 01:22:28;;;;;;;8.73;5.33;;;;;;;;;;4982699;28;20682;-59
2021/05/13 01:24:56;;;;;;;6.20;4.50;;;;;;;;;;4983351;28;20192;-61
2021/05/13 01:27:24;;;;;;;4.73;3.90;;;;;;;;;;4987288;28;20189;-59
2021/05/13 01:29:52;;;;;;;6.30;4.00;;;;;;;;;;4983355;28;20212;-59
2021/05/13 01:32:21;;;;;;;5.30;4.33;;;;;;;;;;4984319;28;20275;-59
2021/05/13 01:34:46;;;;;;;8.07;3.87;;;;;;;;;;4984969;28;20218;-60
2021/05/13 01:37:18;;;;;;;4.77;4.33;;;;;;;;;;4983277;28;20315;-58
2021/05/13 01:39:45;;;;;;;5.33;4.07;;;;;;;;;;4982352;28;21772;-58
2021/05/13 01:42:14;;;;;;;5.23;3.90;;;;;;;;;;4982751;28;20203;-58
2021/05/13 01:44:42;;;;;;;7.57;4.10;;;;;;;;;;4986285;28;20208;-59
2021/05/13 01:47:09;;;;;;;4.90;3.90;;;;;;;;;;4988874;28;20206;-58
2021/05/13 01:49:39;;;;;;;7.57;4.60;;;;;;;;;;4984180;28;20212;-59
2021/05/13 01:52:04;;;;;;;6.47;4.27;;;;;;;;;;4983156;28;20228;-60
2021/05/13 01:54:30;;;;;;;6.37;4.40;;;;;;;;;;4987152;28;20792;-60
2021/05/13 01:57:05;;;;;;;6.00;4.20;;;;;;;;;;4987130;28;20302;-59
2021/05/13 01:59:35;;;;;;;6.90;3.63;;;;;;;;;;4986460;28;20238;-57
2021/05/13 02:02:05;;;;;;;5.83;3.90;;;;;;;;;;4986249;28;20652;-58
2021/05/13 02:04:31;;;;;;;7.43;4.87;;;;;;;;;;4988895;28;20275;-57
2021/05/13 02:06:59;;;;;;;7.87;6.60;;;;;;;;;;4988986;28;20711;-60
2021/05/13 02:09:29;;;;;;;10.07;6.80;;;;;;;;;;4986507;28;20222;-59
2021/05/13 02:11:54;;;;;;;11.63;7.87;;;;;;;;;;4991024;28;20192;-60
2021/05/13 02:14:20;;;;;;;8.13;6.90;;;;;;;;;;4997476;28;20199;-60
2021/05/13 02:16:45;;;;;;;8.53;7.00;;;;;;;;;;4982172;28;20605;-61
2021/05/13 02:19:13;;;;;;;9.07;7.37;;;;;;;;;;4983082;28;20219;-62
2021/05/13 02:21:40;;;;;;;8.23;6.97;;;;;;;;;;4982849;28;20216;-60
2021/05/13 02:24:08;;;;;;;7.83;6.53;;;;;;;;;;4983357;28;20202;-63
2021/05/13 02:26:33;;;;;;;9.17;6.93;;;;;;;;;;4981107;28;20258;-60
2021/05/13 02:29:03;;;;;;;8.23;6.80;;;;;;;;;;4985501;28;20184;-60
2021/05/13 02:31:31;;;;;;;9.03;6.60;;;;;;;;;;4998276;28;20246;-59
2021/05/13 02:33:58;;;;;;;7.87;6.97;;;;;;;;;;4984396;28;20199;-59
2021/05/13 02:36:24;;;;;;;8.00;6.73;;;;;;;;;;4987930;28;20203;-59
2021/05/13 02:38:49;;;;;;;8.77;6.60;;;;;;;;;;4988772;28;20216;-60
2021/05/13 02:41:16;;;;;;;7.57;6.87;;;;;;;;;;4988901;28;20231;-59
2021/05/13 02:43:42;;;;;;;12.63;6.33;;;;;;;;;;5000523;28;20335;-59
2021/05/13 02:46:07;;;;;;;7.27;6.03;;;;;;;;;;4987586;28;20298;-60
2021/05/13 02:48:37;;;;;;;7.50;6.70;;;;;;;;;;4987595;28;20194;-59
2021/05/13 02:51:05;;;;;;;8.13;6.83;;;;;;;;;;4984601;28;20228;-58
2021/05/13 02:53:35;;;;;;;8.10;7.03;;;;;;;;;;4985528;28;20226;-59
2021/05/13 02:56:02;;;;;;;8.93;7.87;;;;;;;;;;4989241;28;20656;-59
2021/05/13 02:58:29;;;;;;;9.17;7.20;;;;;;;;;;4986836;28;20295;-60
2021/05/13 03:01:08;;;;;;;10.10;7.70;;;;;;;;;;4987257;28;20290;-58
2021/05/13 03:03:33;;;;;;;7.93;6.93;;;;;;;;;;4986147;28;20618;-58
2021/05/13 03:06:01;;;;;;;8.40;6.97;;;;;;;;;;4986868;28;20251;-59
2021/05/13 03:08:29;;;;;;;8.03;6.97;;;;;;;;;;4987201;28;20671;-60
2021/05/13 03:10:54;;;;;;;9.10;7.60;;;;;;;;;;4987684;28;20210;-61
2021/05/13 03:13:24;;;;;;;8.70;7.43;;;;;;;;;;4986614;28;20634;-58
2021/05/13 03:15:50;;;;;;;10.47;7.23;;;;;;;;;;4982197;28;20195;-59
2021/05/13 03:18:27;;;;;;;8.90;7.90;;;;;;;;;;4985321;28;20250;-59
2021/05/13 03:23:33;;;;;;;9.43;7.33;;;;;;;;;;4989143;28;20187;-62
2021/05/13 03:26:01;;;;;;;8.87;7.60;;;;;;;;;;4987754;28;20180;-59
2021/05/13 03:28:31;;;;;;;8.30;7.37;;;;;;;;;;4986224;28;20196;-60
2021/05/13 03:31:02;;;;;;;9.60;8.60;;;;;;;;;;4988014;28;20254;-60
2021/05/13 03:33:34;;;;;;;9.40;8.03;;;;;;;;;;4986933;28;20202;-60
2021/05/13 03:36:04;;;;;;;11.00;8.10;;;;;;;;;;4989894;28;20694;-60
2021/05/13 03:38:32;;;;;;;8.00;7.20;;;;;;;;;;4980619;28;20676;-60
2021/05/13 03:40:59;;;;;;;8.87;7.97;;;;;;;;;;4982192;28;20264;-58
2021/05/13 03:43:27;;;;;;;10.03;8.17;;;;;;;;;;4983226;28;20221;-60
2021/05/13 03:45:54;;;;;;;9.13;8.17;;;;;;;;;;4983205;28;20648;-59
2021/05/13 03:48:19;;;;;;;9.07;7.73;;;;;;;;;;4981955;28;20235;-61
2021/05/13 03:50:47;;;;;;;9.07;7.70;;;;;;;;;;4981040;28;20216;-61
2021/05/13 03:53:14;;;;;;;8.57;7.63;;;;;;;;;;4982348;28;20196;-58
2021/05/13 03:55:40;;;;;;;9.47;7.33;;;;;;;;;;4990122;28;20199;-60
2021/05/13 03:58:11;;;;;;;10.63;8.00;;;;;;;;;;4987553;28;20688;-60
2021/05/13 04:03:15;;;;;;;8.70;7.80;;;;;;;;;;4991912;28;20183;-58
2021/05/13 04:05:43;;;;;;;9.83;8.03;;;;;;;;;;4989260;28;20196;-59
2021/05/13 04:08:09;;;;;;;8.27;7.23;;;;;;;;;;4985570;28;20212;-58
2021/05/13 04:10:36;;;;;;;9.07;7.87;;;;;;;;;;4990041;28;20254;-58
2021/05/13 04:13:08;;;;;;;9.13;7.67;;;;;;;;;;4993012;28;20179;-61
2021/05/13 04:15:34;;;;;;;12.90;7.57;;;;;;;;;;4988869;28;20675;-57
2021/05/13 04:18:02;;;;;;;8.57;7.43;;;;;;;;;;4984472;28;20216;-60
2021/05/13 04:20:30;;;;;;;8.27;7.37;;;;;;;;;;4989548;28;20224;-59
2021/05/13 04:22:57;;;;;;;8.73;6.77;;;;;;;;;;4989263;28;20199;-58
2021/05/13 04:25:25;;;;;;;8.70;6.80;;;;;;;;;;4990362;28;20198;-60
2021/05/13 04:27:52;;;;;;;9.17;6.83;;;;;;;;;;4986017;28;20204;-61
2021/05/13 04:30:18;;;;;;;7.53;6.43;;;;;;;;;;4984693;28;20239;-61
2021/05/13 04:32:46;;;;;;;6.97;6.27;;;;;;;;;;4991645;28;20223;-59
2021/05/13 04:35:12;;;;;;;11.20;6.77;;;;;;;;;;4987481;28;20184;-59
2021/05/13 04:37:42;;;;;;;12.00;6.40;;;;;;;;;;4991447;28;20215;-60
2021/05/13 04:40:13;;;;;;;11.40;6.67;;;;;;;;;;4987592;28;20262;-59
2021/05/13 04:42:40;;;;;;;9.97;7.00;;;;;;;;;;4989623;28;20203;-59
2021/05/13 04:45:07;;;;;;;8.57;6.47;;;;;;;;;;4986657;28;20694;-60
2021/05/13 04:47:52;;;;;;;7.80;7.00;;;;;;;;;;4987585;28;20640;-60
2021/05/13 04:50:23;;;;;;;9.57;6.93;;;;;;;;;;4988359;28;20204;-60
2021/05/13 04:52:55;;;;;;;9.93;7.17;;;;;;;;;;4987846;28;20611;-60
2021/05/13 04:55:21;;;;;;;13.53;7.13;;;;;;;;;;4987713;28;20242;-59
2021/05/13 04:57:51;;;;;;;11.63;9.80;;;;;;;;;;4984933;28;20215;-64
2021/05/13 05:00:17;;;;;;;14.07;10.67;;;;;;;;;;4983603;28;20723;-59
2021/05/13 05:02:42;;;;;;;13.00;10.67;;;;;;;;;;4988607;28;20187;-59
2021/05/13 05:05:08;;;;;;;12.97;9.57;;;;;;;;;;4988688;28;20188;-62
2021/05/13 05:07:33;;;;;;;11.53;9.73;;;;;;;;;;4990927;28;20230;-59
2021/05/13 05:10:01;;;;;;;10.23;8.90;;;;;;;;;;4988539;28;20815;-59
2021/05/13 05:12:29;;;;;;;12.90;8.83;;;;;;;;;;4989510;28;20192;-60
2021/05/13 05:14:56;;;;;;;9.37;8.27;;;;;;;;;;5002894;28;20204;-57
2021/05/13 05:17:24;;;;;;;13.73;9.00;;;;;;;;;;4988349;28;20239;-61
2021/05/13 05:19:49;;;;;;;13.77;8.87;;;;;;;;;;5001973;28;20224;-59
2021/05/13 05:22:14;;;;;;;11.50;9.83;;;;;;;;;;4983596;28;20196;-60
2021/05/13 05:24:42;;;;;;;10.33;9.20;;;;;;;;;;4981441;28;20184;-61
2021/05/13 05:27:07;;;;;;;12.10;8.20;;;;;;;;;;4990108;28;20188;-60
2021/05/13 05:29:33;;;;;;;11.50;9.27;;;;;;;;;;4989622;28;20219;-60
2021/05/13 05:32:00;;;;;;;13.20;9.80;;;;;;;;;;4989303;28;20184;-60
2021/05/13 05:34:27;;;;;;;15.67;9.80;;;;;;;;;;4988490;28;20214;-61
2021/05/13 05:36:55;;;;;;;10.53;7.20;;;;;;;;;;4990752;28;20190;-59
2021/05/13 05:39:23;;;;;;;10.33;7.33;;;;;;;;;;4986436;28;20590;-61
2021/05/13 05:41:49;;;;;;;9.53;6.67;;;;;;;;;;4987266;28;20853;-58
2021/05/13 05:44:16;;;;;;;6.43;5.50;;;;;;;;;;4989010;28;20188;-59
2021/05/13 05:46:41;;;;;;;10.27;6.23;;;;;;;;;;4984928;28;20199;-59
2021/05/13 05:49:09;;;;;;;8.47;5.97;;;;;;;;;;4988080;28;20211;-59
2021/05/13 05:51:36;;;;;;;9.07;5.70;;;;;;;;;;4990496;28;20809;-59
2021/05/13 05:54:05;;;;;;;10.37;5.80;;;;;;;;;;4991062;28;20223;-60
2021/05/13 05:56:33;;;;;;;9.27;5.30;;;;;;;;;;4986642;28;20191;-61
2021/05/13 05:58:58;;;;;;;7.13;5.17;;;;;;;;;;4983127;28;20205;-59
2021/05/13 06:01:26;;;;;;;8.47;5.27;;;;;;;;;;4987965;28;20275;-60
2021/05/13 06:03:51;;;;;;;7.93;4.90;;;;;;;;;;4990666;28;20230;-61
2021/05/13 06:06:17;;;;;;;9.57;4.80;;;;;;;;;;4986868;28;20679;-59
2021/05/13 06:08:44;;;;;;;8.30;4.93;;;;;;;;;;4986831;28;20191;-60
2021/05/13 06:11:14;;;;;;;9.53;4.80;;;;;;;;;;4987760;28;20686;-60
2021/05/13 06:13:40;;;;;;;10.37;4.73;;;;;;;;;;4986843;28;20636;-61
2021/05/13 06:16:05;;;;;;;8.00;4.43;;;;;;;;;;4986650;28;20192;-60
2021/05/13 06:18:55;;;;;;;7.63;4.30;;;;;;;;;;4987007;28;20208;-60
2021/05/13 06:21:24;;;;;;;7.20;4.33;;;;;;;;;;4981380;28;20211;-60
2021/05/13 06:23:51;;;;;;;6.97;4.40;;;;;;;;;;4987369;28;20353;-58
2021/05/13 06:26:29;;;;;;;6.37;4.10;;;;;;;;;;4980471;28;20192;-58
2021/05/13 06:28:59;;;;;;;8.63;4.00;;;;;;;;;;4980009;28;20274;-60
2021/05/13 06:31:29;;;;;;;8.53;4.17;;;;;;;;;;4979908;28;20204;-61
2021/05/13 06:33:54;;;;;;;11.37;4.53;;;;;;;;;;4981539;28;20725;-62
2021/05/13 06:36:22;;;;;;;5.43;3.73;;;;;;;;;;4980202;28;20192;-61
2021/05/13 06:38:52;;;;;;;5.27;3.60;;;;;;;;;;4984148;28;20200;-59
2021/05/13 06:41:22;;;;;;;6.73;3.77;;;;;;;;;;4979173;28;20258;-57
2021/05/13 06:43:49;;;;;;;5.83;3.70;;;;;;;;;;4982753;28;20192;-61
2021/05/13 06:46:14;;;;;;;7.47;3.80;;;;;;;;;;4984687;28;20591;-60
2021/05/13 06:48:44;;;;;;;6.30;4.20;;;;;;;;;;4980493;28;20184;-59
2021/05/13 06:51:12;;;;;;;8.77;3.80;;;;;;;;;;4978910;28;20295;-60
2021/05/13 06:53:37;;;;;;;6.13;3.37;;;;;;;;;;4980222;28;20245;-56
2021/05/13 06:56:02;;;;;;;9.00;3.83;;;;;;;;;;4983663;28;20196;-60
2021/05/13 06:58:28;;;;;;;6.93;3.50;;;;;;;;;;4987261;28;20207;-60
2021/05/13 07:00:55;;;;;;;10.07;3.63;;;;;;;;;;4980228;28;20231;-69
2021/05/13 07:03:23;;;;;;;8.53;3.43;;;;;;;;;;4978249;28;20862;-61
2021/05/13 07:05:52;;;;;;;6.10;3.57;;;;;;;;;;4976409;28;20566;-58
2021/05/13 07:08:18;;;;;;;7.70;3.67;;;;;;;;;;4981537;28;20191;-57
2021/05/13 07:10:48;;;;;;;9.50;3.90;;;;;;;;;;4985093;28;20224;-62
2021/05/13 07:13:14;;;;;;;12.57;4.43;;;;;;;;;;4989431;28;20195;-59
2021/05/13 07:15:42;;;;;;;6.00;3.80;;;;;;;;;;4981523;28;20755;-66
2021/05/13 07:18:17;;;;;;;6.23;3.60;;;;;;;;;;4993143;28;20634;-62
2021/05/13 07:20:43;;;;;;;8.03;3.27;;;;;;;;;;4972217;28;20240;-61
2021/05/13 07:23:09;;;;;;;7.20;3.77;;;;;;;;;;4974721;28;20200;-60
2021/05/13 07:25:37;;;;;;;6.47;3.53;;;;;;;;;;4975401;28;20618;-59
2021/05/13 07:28:03;;;;;;;7.93;3.70;;;;;;;;;;4980144;28;20196;-60
2021/05/13 07:30:31;;;;;;;6.00;3.50;;;;;;;;;;4987805;28;20212;-60
2021/05/13 07:32:59;;;;;;;10.83;3.20;;;;;;;;;;4984982;28;20238;-61
2021/05/13 07:35:24;;;;;;;8.07;2.90;;;;;;;;;;4975927;28;20279;-62
2021/05/13 07:37:54;;;;;;;5.80;3.07;;;;;;;;;;4975730;28;20295;-62
2021/05/13 07:40:25;;;;;;;4.80;2.37;;;;;;;;;;4985293;28;20222;-59
2021/05/13 07:42:53;;;;;;;6.97;3.33;;;;;;;;;;4983854;28;21369;-61
2021/05/13 07:45:21;;;;;;;4.70;2.80;;;;;;;;;;4981694;28;20214;-59
2021/05/13 07:47:49;;;;;;;6.37;3.03;;;;;;;;;;4985595;28;20830;-64
2021/05/13 07:50:21;;;;;;;5.43;2.20;;;;;;;;;;4984895;28;20214;-58
2021/05/13 07:52:50;;;;;;;6.37;2.77;;;;;;;;;;4983608;28;20205;-59
2021/05/13 07:55:18;;;;;;;9.13;3.00;;;;;;;;;;4980797;28;20207;-56
2021/05/13 07:57:44;;;;;;;6.20;2.58;;;;;;;;;;4979806;28;21475;-57
2021/05/13 08:00:13;;;;;;;7.27;2.67;;;;;;;;;;4982071;28;20212;-58
2021/05/13 08:02:41;;;;;;;5.13;2.63;;;;;;;;;;4980036;28;20196;-60
2021/05/13 08:05:07;;;;;;;4.50;2.75;;;;;;;;;;4981551;28;20184;-57
2021/05/13 08:07:38;;;;;;;7.28;2.05;;;;;;;;;;4980845;28;21004;-57
2021/05/13 08:10:07;;;;;;;5.38;2.47;;;;;;;;;;4980110;28;21084;-55
2021/05/13 08:12:35;;;;;;;5.05;2.33;;;;;;;;;;4981138;28;20222;-56
2021/05/13 08:15:06;;;;;;;4.22;2.00;;;;;;;;;;4981647;28;20282;-57
2021/05/13 08:17:34;;;;;;;6.25;2.20;;;;;;;;;;4981386;28;20219;-56
2021/05/13 08:20:04;;;;;;;7.40;2.28;;;;;;;;;;4981782;28;20215;-58
2021/05/13 08:22:31;;;;;;;5.85;2.40;;;;;;;;;;4974131;28;20547;-59
2021/05/13 08:24:56;;;;;;;2.97;1.85;;;;;;;;;;4979188;28;20267;-61
2021/05/13 08:27:24;;;;;;;4.93;2.17;;;;;;;;;;4976969;28;20267;-60
2021/05/13 08:29:52;;;;;;;5.35;2.20;;;;;;;;;;4983354;28;20208;-60
2021/05/13 08:32:17;;;;;;;5.57;2.10;;;;;;;;;;4982491;28;20191;-58
2021/05/13 08:34:44;;;;;;;4.13;1.88;;;;;;;;;;4981361;28;20218;-60
2021/05/13 08:37:14;;;;;;;3.35;1.98;;;;;;;;;;4980464;28;20871;-61
2021/05/13 08:39:42;;;;;;;3.45;1.80;;;;;;;;;;4982147;28;20609;-56
2021/05/13 08:42:15;;;;;;;5.68;1.80;;;;;;;;;;4985520;28;20180;-58
2021/05/13 08:44:44;;;;;;;4.30;2.15;;;;;;;;;;4982691;28;20207;-57
2021/05/13 08:47:12;;;;;;;3.45;1.90;;;;;;;;;;4984174;28;20184;-60
2021/05/13 08:49:39;;;;;;;4.20;2.00;;;;;;;;;;4982220;28;20402;-59
2021/05/13 08:52:11;;;;;;;4.68;1.77;;;;;;;;;;4985849;28;20267;-62
2021/05/13 08:54:59;;;;;;;3.00;1.50;;;;;;;;;;4981616;28;20283;-63
2021/05/13 08:57:25;;;;;;;3.17;1.70;;;;;;;;;;4982350;28;20224;-58
2021/05/13 08:59:51;;;;;;;4.18;1.40;;;;;;;;;;4983142;28;20208;-58
2021/05/13 09:02:17;;;;;;;3.67;1.38;;;;;;;;;;4990308;28;20187;-59
2021/05/13 09:04:48;;;;;;;5.43;1.73;;;;;;;;;;4982624;28;20200;-60
2021/05/13 09:07:18;;;;;;;3.88;1.65;;;;;;;;;;4983461;28;20794;-62
2021/05/13 09:09:59;;;;;;;6.80;1.77;;;;;;;;;;4984086;28;20635;-59
2021/05/13 09:12:35;;;;;;;4.18;1.60;;;;;;;;;;4984851;28;20648;-60
2021/05/13 09:15:09;;;;;;;3.67;1.50;;;;;;;;;;4985224;28;20550;-59
2021/05/13 09:17:41;;;;;;;7.13;1.50;;;;;;;;;;4982707;28;20239;-57
2021/05/13 09:20:28;;;;;;;2.72;1.45;;;;;;;;;;5013797;23;20687;-79
2021/05/13 09:23:10;;;;;;;6.60;1.60;;;;;;;;;;5004845;28;20175;-81
2021/05/13 09:25:35;;;;;;;4.13;1.60;;;;;;;;;;5002542;28;20860;-82
2021/05/13 09:28:02;;;;;;;4.18;1.20;;;;;;;;;;4984897;28;20199;-81
2021/05/13 09:30:29;;;;;;;4.00;1.52;;;;;;;;;;4983468;28;20196;-83
2021/05/13 09:33:00;;;;;;;4.97;1.73;;;;;;;;;;5002461;28;20188;-85
2021/05/13 09:35:31;;;;;;;3.17;1.20;;;;;;;;;;4984973;28;20195;-80
2021/05/13 09:38:02;;;;;;;3.40;1.42;;;;;;;;;;4984374;28;20234;-80
2021/05/13 09:40:37;;;;;;;4.55;1.48;;;;;;;;;;4983737;28;20210;-80
2021/05/13 09:43:18;;;;;;;3.47;1.40;;;;;;;;;;4986439;28;20207;-80
2021/05/13 09:45:48;;;;;;;4.65;1.50;;;;;;;;;;4985402;28;20230;-80
2021/05/13 09:48:42;;;;;;;2.45;1.10;;;;;;;;;;4984306;28;20180;-81
2021/05/13 09:51:37;;;;;;;2.47;1.25;;;;;;;;;;4983670;28;20271;-81
2021/05/13 09:54:16;;;;;;;4.63;1.40;;;;;;;;;;4984252;28;20240;-81
2021/05/13 09:56:42;;;;;;;3.35;1.27;;;;;;;;;;4983882;28;20695;-81
2021/05/13 09:59:28;;;;;;;3.58;1.30;;;;;;;;;;4985474;28;20270;-81
2021/05/13 10:01:57;;;;;;;3.35;1.20;;;;;;;;;;4983928;28;20219;-80
2021/05/13 10:04:23;;;;;;;4.22;1.52;;;;;;;;;;4982403;28;20593;-81
2021/05/13 10:06:49;;;;;;;4.90;1.90;;;;;;;;;;4984553;28;20271;-81
2021/05/13 10:09:19;;;;;;;3.08;1.20;;;;;;;;;;4984178;28;20227;-81
2021/05/13 10:11:58;;;;;;;3.92;1.63;;;;;;;;;;4984738;28;20210;-80
2021/05/13 10:14:27;;;;;;;5.65;1.75;;;;;;;;;;4983961;28;20806;-80
2021/05/13 10:16:55;;;;;;;2.90;1.42;;;;;;;;;;4984534;28;20294;-80
2021/05/13 10:19:27;;;;;;;3.58;1.50;;;;;;;;;;4986231;28;20192;-81
2021/05/13 10:21:55;;;;;;;4.07;1.52;;;;;;;;;;4984170;28;20224;-81
2021/05/13 10:24:20;;;;;;;2.35;1.45;;;;;;;;;;4982261;28;20194;-80
2021/05/13 10:26:48;;;;;;;4.82;1.35;;;;;;;;;;4984908;28;20582;-80
2021/05/13 10:29:22;;;;;;;3.30;1.45;;;;;;;;;;5002723;28;20192;-80
2021/05/13 10:32:20;;;;;;;3.30;1.50;;;;;;;;;;4987476;28;20219;-80
2021/05/13 10:34:59;;;;;;;4.10;1.60;;;;;;;;;;4988471;28;20215;-80
2021/05/13 10:37:30;;;;;;;5.03;1.80;;;;;;;;;;4987865;28;20262;-80
2021/05/13 10:40:08;;;;;;;3.90;1.45;;;;;;;;;;4985828;28;20212;-80
2021/05/13 10:42:38;;;;;;;3.40;1.33;;;;;;;;;;4985938;28;20184;-79
2021/05/13 10:45:25;;;;;;;7.43;1.52;;;;;;;;;;4985439;28;20203;-78
2021/05/13 10:48:27;;;;;;;3.05;1.35;;;;;;;;;;4979486;28;20735;-79
2021/05/13 10:51:03;;;;;;;3.38;1.50;;;;;;;;;;4985158;28;20274;-79
2021/05/13 10:53:39;;;;;;;6.43;1.90;;;;;;;;;;4988900;28;20615;-79
2021/05/13 10:58:53;;;;;;;4.32;1.42;;;;;;;;;;5022321;28;20222;-62
2021/05/13 11:01:25;;;;;;;3.95;1.20;;;;;;;;;;5007923;28;20750;-63
2021/05/13 11:04:27;;;;;;;4.70;1.42;;;;;;;;;;5006466;28;20585;-62
2021/05/13 11:06:58;;;;;;;4.43;1.33;;;;;;;;;;5006671;28;20189;-62
2021/05/13 11:09:41;;;;;;;4.40;1.35;;;;;;;;;;5004092;28;20573;-60
2021/05/13 11:12:13;;;;;;;3.97;1.13;;;;;;;;;;5005195;28;20198;-62
2021/05/13 11:15:19;;;;;;;4.18;1.13;;;;;;;;;;5021408;28;20195;-62
2021/05/13 11:20:23;;;;;;;3.33;1.33;;;;;;;;;;5005573;28;20335;-62
2021/05/13 11:23:12;;;;;;;2.00;1.20;;;;;;;;;;5008605;28;20191;-62
2021/05/13 11:25:46;;;;;;;4.13;1.40;;;;;;;;;;5006276;28;20916;-64
2021/05/13 11:28:42;;;;;;;4.45;1.30;;;;;;;;;;5004442;28;20317;-62
2021/05/13 11:31:12;;;;;;;4.30;1.30;;;;;;;;;;5000178;28;20222;-62
2021/05/13 11:33:40;;;;;;;4.28;1.30;;;;;;;;;;5008907;28;20183;-63
2021/05/13 11:36:09;;;;;;;2.28;1.20;;;;;;;;;;5005773;28;20662;-62
2021/05/13 11:38:39;;;;;;;3.85;1.30;;;;;;;;;;5005985;28;20210;-62
2021/05/13 11:41:06;;;;;;;4.03;1.63;;;;;;;;;;5007587;28;20622;-62
2021/05/13 11:43:33;;;;;;;3.13;1.15;;;;;;;;;;5004406;28;20206;-61
2021/05/13 11:46:07;;;;;;;2.75;1.20;;;;;;;;;;5005296;28;20187;-61
2021/05/13 11:48:39;;;;;;;2.80;1.10;;;;;;;;;;5007355;28;20183;-62
2021/05/13 11:51:29;;;;;;;3.05;0.95;;;;;;;;;;5006433;28;20266;-62
2021/05/13 11:54:01;;;;;;;2.35;1.20;;;;;;;;;;5007693;28;20183;-64
2021/05/13 11:56:28;;;;;;;4.03;1.50;;;;;;;;;;5004255;28;20606;-63
2021/05/13 11:58:59;;;;;;;2.83;1.08;;;;;;;;;;5003848;28;20222;-61
2021/05/13 12:01:41;;;;;;;2.05;1.00;;;;;;;;;;4996371;28;20222;-64
2021/05/13 12:04:13;;;;;;;2.95;1.00;;;;;;;;;;5007103;28;20190;-62
2021/05/13 12:06:50;;;;;;;2.75;1.33;;;;;;;;;;5000991;28;20191;-63
2021/05/13 12:09:19;;;;;;;2.30;1.20;;;;;;;;;;5005823;28;20236;-63
2021/05/13 12:11:50;;;;;;;0.73;0.70;;;;;;;;;;5004993;28;20191;-65
2021/05/13 12:14:23;;;;;;;2.15;0.90;;;;;;;;;;5006021;28;20191;-63
2021/05/13 12:16:56;;;;;;;3.88;0.90;;;;;;;;;;5010162;28;20770;-62
2021/05/13 12:19:22;;;;;;;2.40;1.10;;;;;;;;;;5010076;28;20582;-62
2021/05/13 12:21:54;;;;;;;4.38;1.50;;;;;;;;;;5010956;28;20191;-67
2021/05/13 12:24:26;;;;;;;12.38;4.90;;;;;;;;;;5010515;28;20191;-62
2021/05/13 12:26:54;;;;;;;3.05;1.30;;;;;;;;;;5007452;28;20792;-61
2021/05/13 12:29:24;;;;;;;2.00;1.02;;;;;;;;;;5003233;28;20187;-62
2021/05/13 12:31:52;;;;;;;2.63;1.27;;;;;;;;;;5009843;28;20191;-63
2021/05/13 12:34:42;;;;;;;3.92;1.27;;;;;;;;;;5012618;28;20233;-62
2021/05/13 12:37:19;;;;;;;4.35;1.75;;;;;;;;;;5010816;28;20186;-59
2021/05/13 12:39:49;;;;;;;3.10;1.27;;;;;;;;;;5007800;28;20695;-63
2021/05/13 12:42:29;;;;;;;2.30;1.00;;;;;;;;;;5008921;28;20337;-62
2021/05/13 12:45:17;;;;;;;1.75;0.93;;;;;;;;;;5001413;28;20195;-60
2021/05/13 12:47:43;;;;;;;2.85;1.10;;;;;;;;;;5011621;28;20203;-62
2021/05/13 12:50:11;;;;;;;12.30;9.02;;;;;;;;;;5007359;28;20207;-60
2021/05/13 12:52:44;;;;;;;3.70;2.25;;;;;;;;;;5004467;28;20254;-61
2021/05/13 12:55:17;;;;;;;2.35;1.00;;;;;;;;;;5003566;28;20199;-60
2021/05/13 12:57:45;;;;;;;3.08;1.00;;;;;;;;;;4998297;28;20210;-60
2021/05/13 13:00:15;;;;;;;5.07;0.90;;;;;;;;;;5001997;28;20714;-60
2021/05/13 13:02:42;;;;;;;2.35;1.17;;;;;;;;;;5004477;28;20191;-59
2021/05/13 13:05:17;;;;;;;2.40;1.00;;;;;;;;;;4994480;28;20198;-59
2021/05/13 13:07:47;;;;;;;1.63;0.93;;;;;;;;;;5005189;28;20266;-59
2021/05/13 13:10:27;;;;;;;1.95;0.90;;;;;;;;;;5003799;28;20222;-59
2021/05/13 13:13:23;;;;;;;3.30;0.90;;;;;;;;;;5003004;28;20187;-60
2021/05/13 13:16:01;;;;;;;2.78;1.15;;;;;;;;;;4998295;28;20191;-59
2021/05/13 13:18:29;;;;;;;2.42;1.00;;;;;;;;;;4996576;28;20207;-60
2021/05/13 13:20:55;;;;;;;2.92;1.10;;;;;;;;;;5000358;28;20212;-59
2021/05/13 13:23:28;;;;;;;3.53;1.30;;;;;;;;;;5000696;28;20239;-61
2021/05/13 13:26:00;;;;;;;3.45;1.40;;;;;;;;;;4998951;28;20191;-59
2021/05/13 13:28:28;;;;;;;2.35;1.20;;;;;;;;;;4996503;28;20188;-59
2021/05/13 13:30:58;;;;;;;3.50;1.00;;;;;;;;;;5001880;28;20282;-60
2021/05/13 13:33:27;;;;;;;2.67;1.02;;;;;;;;;;4997662;28;20219;-61
2021/05/13 13:35:57;;;;;;;1.50;1.00;;;;;;;;;;4995241;28;20215;-62
2021/05/13 13:38:25;;;;;;;2.33;1.00;;;;;;;;;;4997079;28;20230;-58
2021/05/13 13:40:59;;;;;;;4.88;1.33;;;;;;;;;;5000636;28;20211;-58
2021/05/13 13:43:30;;;;;;;2.13;1.17;;;;;;;;;;5004159;28;20198;-58
2021/05/13 13:45:58;;;;;;;2.90;1.35;;;;;;;;;;5004888;28;20325;-59
2021/05/13 13:48:26;;;;;;;3.65;1.40;;;;;;;;;;5003663;28;20222;-58
2021/05/13 13:50:56;;;;;;;2.08;1.10;;;;;;;;;;5006137;28;20219;-58
2021/05/13 13:53:26;;;;;;;3.47;1.55;;;;;;;;;;5005029;28;20192;-60
2021/05/13 13:55:53;;;;;;;2.20;1.20;;;;;;;;;;5000755;28;20183;-60
2021/05/13 13:58:21;;;;;;;4.03;1.55;;;;;;;;;;5002129;28;20241;-60
2021/05/13 14:00:49;;;;;;;4.18;1.02;;;;;;;;;;4998665;28;20211;-60
2021/05/13 14:03:19;;;;;;;2.55;1.10;;;;;;;;;;4997095;28;20240;-59
2021/05/13 14:05:47;;;;;;;2.70;1.10;;;;;;;;;;4996467;28;20188;-60
2021/05/13 14:08:13;;;;;;;3.65;1.45;;;;;;;;;;5000389;28;20656;-60
2021/05/13 14:10:42;;;;;;;3.58;1.40;;;;;;;;;;5006677;28;20214;-59
2021/05/13 14:13:09;;;;;;;2.08;1.23;;;;;;;;;;5008656;28;20274;-59
2021/05/13 14:15:37;;;;;;;5.47;1.48;;;;;;;;;;5005005;28;20267;-59
2021/05/13 14:18:02;;;;;;;5.65;1.33;;;;;;;;;;5007527;28;20210;-59
2021/05/13 14:20:28;;;;;;;2.65;1.50;;;;;;;;;;5007666;28;20203;-58
2021/05/13 14:22:58;;;;;;;2.53;1.30;;;;;;;;;;5007461;28;20201;-59
2021/05/13 14:25:30;;;;;;;4.85;1.40;;;;;;;;;;5006410;28;20194;-58
2021/05/13 14:27:58;;;;;;;2.90;1.20;;;;;;;;;;5004779;28;20199;-59
2021/05/13 14:30:24;;;;;;;4.80;1.52;;;;;;;;;;5005730;28;20292;-59
2021/05/13 14:32:52;;;;;;;5.00;1.65;;;;;;;;;;5001620;28;20194;-57
2021/05/13 14:35:23;;;;;;;2.42;1.30;;;;;;;;;;5001425;28;20208;-57
2021/05/13 14:37:55;;;;;;;3.05;1.10;;;;;;;;;;5000554;28;20671;-57
2021/05/13 14:40:22;;;;;;;4.18;1.83;;;;;;;;;;5001587;28;20269;-60
2021/05/13 14:42:50;;;;;;;3.25;1.30;;;;;;;;;;5001872;28;20639;-58
2021/05/13 14:45:18;;;;;;;2.88;1.20;;;;;;;;;;5002465;28;20685;-58
2021/05/13 14:47:52;;;;;;;2.78;1.30;;;;;;;;;;5000666;28;20198;-60
2021/05/13 14:50:28;;;;;;;3.20;1.33;;;;;;;;;;5000468;28;20207;-57
2021/05/13 14:52:54;;;;;;;2.25;1.35;;;;;;;;;;5002505;28;20188;-59
2021/05/13 14:55:24;;;;;;;2.90;1.48;;;;;;;;;;5003746;28;20189;-57
2021/05/13 14:57:51;;;;;;;3.30;1.63;;;;;;;;;;4999477;28;20210;-59
2021/05/13 15:00:19;;;;;;;4.47;1.52;;;;;;;;;;5002092;28;20219;-58
2021/05/13 15:02:47;;;;;;;2.55;1.42;;;;;;;;;;5001766;28;20266;-56
2021/05/13 15:05:12;;;;;;;4.20;1.60;;;;;;;;;;5001884;28;20765;-57
2021/05/13 15:07:40;;;;;;;3.17;1.63;;;;;;;;;;5000577;28;20206;-56